createdAt,value
2022-10-22T00:01:11.715Z,83.43
2022-10-22T00:03:14.310Z,83.62
2022-10-22T00:05:16.927Z,84.30
2022-10-22T00:07:19.933Z,84.90
2022-10-22T00:09:22.500Z,85.23
2022-10-22T00:11:25.153Z,85.35
2022-10-22T00:13:28.182Z,85.43
2022-10-22T00:15:30.781Z,85.92
2022-10-22T00:17:34.744Z,86.77
2022-10-22T00:19:38.076Z,84.13
2022-10-22T00:21:40.779Z,84.56
2022-10-22T00:23:46.275Z,83.61
2022-10-22T00:25:49.196Z,84.29
2022-10-22T00:27:51.818Z,84.31
2022-10-22T00:29:54.495Z,83.88
2022-10-22T00:31:57.497Z,84.52
2022-10-22T00:34:02.328Z,83.19
2022-10-22T00:36:05.365Z,83.34
2022-10-22T00:38:07.941Z,83.67
2022-10-22T00:40:12.136Z,83.38
2022-10-22T00:42:19.195Z,83.88
2022-10-22T00:45:01.100Z,84.59
2022-10-22T00:47:03.846Z,83.55
2022-10-22T00:49:07.961Z,83.29
2022-10-22T00:51:11.068Z,83.24
2022-10-22T00:53:17.291Z,84.26
2022-10-22T00:55:21.627Z,84.09
2022-10-22T00:57:24.735Z,84.39
2022-10-22T00:59:27.384Z,84.64
2022-10-22T01:01:32.313Z,85.81
2022-10-22T01:03:35.022Z,86.34
2022-10-22T01:05:44.341Z,85.56
2022-10-22T01:07:49.491Z,84.51
2022-10-22T01:10:02.152Z,84.55
2022-10-22T01:12:13.540Z,85.05
2022-10-22T01:14:22.927Z,85.32
2022-10-22T01:16:33.756Z,85.18
2022-10-22T01:18:44.575Z,85.48
2022-10-22T01:20:59.794Z,83.88
2022-10-22T01:23:17.328Z,84.16
2022-10-22T01:25:30.949Z,83.19
2022-10-22T01:27:43.453Z,83.43
2022-10-22T01:29:51.777Z,83.34
2022-10-22T01:31:59.344Z,84.13
2022-10-22T01:34:04.366Z,84.33
2022-10-22T01:36:08.272Z,83.66
2022-10-22T01:38:15.940Z,84.53
2022-10-22T01:40:20.781Z,84.49
2022-10-22T01:42:24.550Z,84.03
2022-10-22T01:44:28.834Z,83.54
2022-10-22T01:46:33.549Z,83.78
2022-10-22T01:48:52.127Z,83.06
2022-10-22T01:51:15.157Z,83.67
2022-10-22T01:53:26.443Z,81.86
2022-10-22T01:55:34.552Z,82.04
2022-10-22T01:57:45.239Z,82.40
2022-10-22T01:59:55.605Z,81.73
2022-10-22T02:02:08.374Z,81.08
2022-10-22T02:04:19.769Z,81.37
2022-10-22T02:06:25.853Z,81.77
2022-10-22T02:08:32.474Z,81.13
2022-10-22T02:10:38.371Z,81.35
2022-10-22T02:12:44.509Z,82.32
2022-10-22T02:14:50.277Z,81.89
2022-10-22T02:16:52.978Z,81.93
2022-10-22T02:19:01.607Z,82.52
2022-10-22T02:21:04.466Z,82.79
2022-10-22T02:23:07.183Z,81.17
2022-10-22T02:25:10.729Z,82.00
2022-10-22T02:27:25.859Z,82.61
2022-10-22T02:29:35.899Z,82.76
2022-10-22T02:31:41.575Z,82.77
2022-10-22T02:33:48.476Z,83.38
2022-10-22T02:35:53.341Z,83.62
2022-10-22T02:37:58.038Z,82.22
2022-10-22T02:40:00.592Z,83.23
2022-10-22T02:42:03.945Z,82.91
2022-10-22T02:44:10.374Z,83.50
2022-10-22T02:46:13.361Z,84.09
2022-10-22T02:48:16.067Z,84.62
2022-10-22T02:50:18.692Z,84.57
2022-10-22T02:52:22.616Z,84.61
2022-10-22T02:54:25.223Z,84.57
2022-10-22T02:56:30.541Z,84.37
2022-10-22T02:58:33.179Z,84.26
2022-10-22T03:00:35.777Z,85.10
2022-10-22T03:02:38.420Z,85.16
2022-10-22T03:04:40.994Z,83.09
2022-10-22T03:06:44.097Z,83.04
2022-10-22T03:08:48.232Z,81.47
2022-10-22T03:10:50.841Z,82.72
2022-10-22T03:12:53.454Z,83.42
2022-10-22T03:14:56.077Z,84.09
2022-10-22T03:16:58.664Z,82.56
2022-10-22T03:19:01.943Z,81.80
2022-10-22T03:21:08.858Z,81.75
2022-10-22T03:23:12.393Z,82.42
2022-10-22T03:25:21.912Z,81.54
2022-10-22T03:27:24.564Z,82.10
2022-10-22T03:29:28.459Z,82.17
2022-10-22T03:31:31.056Z,81.63
2022-10-22T03:33:33.617Z,80.99
2022-10-22T03:35:44.541Z,81.71
2022-10-22T03:37:47.248Z,81.84
2022-10-22T03:39:50.055Z,80.62
2022-10-22T03:41:54.626Z,81.46
2022-10-22T03:43:57.673Z,80.64
2022-10-22T03:46:00.252Z,80.73
2022-10-22T03:48:02.929Z,79.91
2022-10-22T03:50:07.236Z,80.28
2022-10-22T03:52:12.122Z,80.84
2022-10-22T03:54:14.781Z,80.83
2022-10-22T03:56:17.326Z,81.67
2022-10-22T03:58:21.315Z,81.75
2022-10-22T04:00:23.951Z,82.55
2022-10-22T04:02:26.536Z,82.82
2022-10-22T04:04:29.340Z,83.06
2022-10-22T04:06:32.034Z,83.84
2022-10-22T04:08:35.217Z,83.60
2022-10-22T04:10:37.813Z,83.71
2022-10-22T04:12:40.389Z,83.35
2022-10-22T04:14:44.307Z,81.92
2022-10-22T04:16:46.903Z,83.16
2022-10-22T04:18:51.365Z,83.87
2022-10-22T04:20:53.935Z,83.96
2022-10-22T04:22:56.539Z,83.75
2022-10-22T04:24:59.125Z,83.35
2022-10-22T04:27:01.736Z,83.96
2022-10-22T04:29:04.433Z,84.14
2022-10-22T04:31:12.213Z,83.98
2022-10-22T04:33:14.805Z,83.68
2022-10-22T04:35:17.630Z,83.56
2022-10-22T04:37:20.673Z,84.12
2022-10-22T04:39:23.425Z,84.02
2022-10-22T04:41:28.198Z,83.57
2022-10-22T04:43:30.829Z,83.06
2022-10-22T04:45:34.008Z,82.16
2022-10-22T04:47:38.135Z,81.80
2022-10-22T04:49:41.416Z,80.76
2022-10-22T04:51:43.960Z,81.08
2022-10-22T04:53:47.457Z,82.25
2022-10-22T04:55:50.101Z,82.88
2022-10-22T04:57:52.673Z,82.58
2022-10-22T04:59:55.322Z,82.24
2022-10-22T05:01:57.887Z,82.35
2022-10-22T05:04:03.635Z,82.81
2022-10-22T05:06:06.672Z,83.15
2022-10-22T05:08:09.266Z,82.79
2022-10-22T05:10:11.849Z,83.52
2022-10-22T05:12:14.483Z,83.53
2022-10-22T05:14:18.728Z,81.12
2022-10-22T05:16:21.302Z,81.17
2022-10-22T05:18:23.903Z,81.65
2022-10-22T05:20:27.812Z,82.30
2022-10-22T05:22:30.373Z,82.25
2022-10-22T05:24:36.723Z,81.26
2022-10-22T05:26:39.346Z,80.75
2022-10-22T05:28:42.092Z,80.97
2022-10-22T05:30:54.019Z,81.74
2022-10-22T05:32:56.613Z,80.81
2022-10-22T05:34:59.187Z,81.37
2022-10-22T05:37:03.154Z,80.83
2022-10-22T05:39:06.610Z,81.99
2022-10-22T05:41:14.018Z,82.53
2022-10-22T05:43:16.595Z,82.04
2022-10-22T05:45:19.245Z,82.74
2022-10-22T05:47:21.804Z,81.54
2022-10-22T05:49:24.402Z,81.93
2022-10-22T05:51:28.391Z,82.05
2022-10-22T05:53:32.936Z,83.09
2022-10-22T05:55:37.468Z,84.27
2022-10-22T05:57:40.913Z,84.58
2022-10-22T05:59:43.574Z,85.10
2022-10-22T06:01:46.271Z,85.08
2022-10-22T06:03:49.779Z,85.20
2022-10-22T06:05:52.347Z,85.29
2022-10-22T06:07:55.474Z,85.52
2022-10-22T06:10:00.384Z,84.92
2022-10-22T06:12:03.424Z,85.02
2022-10-22T06:14:06.306Z,84.93
2022-10-22T06:16:08.897Z,85.18
2022-10-22T06:18:12.197Z,85.25
2022-10-22T06:20:15.865Z,85.64
2022-10-22T06:22:18.420Z,85.50
2022-10-22T06:24:21.014Z,85.13
2022-10-22T06:26:24.995Z,84.92
2022-10-22T06:28:28.769Z,84.69
2022-10-22T06:30:31.379Z,84.70
2022-10-22T06:32:33.987Z,84.62
2022-10-22T06:34:36.595Z,84.77
2022-10-22T06:36:39.393Z,84.93
2022-10-22T06:38:42.653Z,84.59
2022-10-22T06:40:45.238Z,84.32
2022-10-22T06:42:49.125Z,84.23
2022-10-22T06:44:51.785Z,84.30
2022-10-22T06:46:54.535Z,84.58
2022-10-22T06:48:59.010Z,84.82
2022-10-22T06:51:03.556Z,85.19
2022-10-22T06:53:06.116Z,85.22
2022-10-22T06:55:09.355Z,85.31
2022-10-22T06:57:11.945Z,85.51
2022-10-22T06:59:15.899Z,86.64
2022-10-22T07:01:21.640Z,87.30
2022-10-22T07:03:24.290Z,87.11
2022-10-22T07:05:26.906Z,86.81
2022-10-22T07:07:29.479Z,86.37
2022-10-22T07:09:32.064Z,85.72
2022-10-22T07:11:41.185Z,85.03
2022-10-22T07:13:44.557Z,83.98
2022-10-22T07:15:53.709Z,84.22
2022-10-22T07:17:56.293Z,84.26
2022-10-22T07:19:58.856Z,82.84
2022-10-22T07:22:01.745Z,82.56
2022-10-22T07:24:04.771Z,82.75
2022-10-22T07:26:08.569Z,83.16
2022-10-22T07:28:12.066Z,84.21
2022-10-22T07:30:15.027Z,83.00
2022-10-22T07:32:23.569Z,83.13
2022-10-22T07:34:26.456Z,82.26
2022-10-22T07:36:29.063Z,82.79
2022-10-22T07:38:32.483Z,83.63
2022-10-22T07:40:36.199Z,84.41
2022-10-22T07:42:38.804Z,84.99
2022-10-22T07:44:41.417Z,84.93
2022-10-22T07:46:48.037Z,84.66
2022-10-22T07:48:53.919Z,83.72
2022-10-22T07:50:56.793Z,83.73
2022-10-22T07:52:59.624Z,83.91
2022-10-22T07:55:02.464Z,84.58
2022-10-22T07:57:05.043Z,85.14
2022-10-22T07:59:07.638Z,84.80
2022-10-22T08:01:10.427Z,84.34
2022-10-22T08:03:13.757Z,83.58
2022-10-22T08:05:18.112Z,83.64
2022-10-22T08:07:20.775Z,82.42
2022-10-22T08:09:23.379Z,82.35
2022-10-22T08:11:26.841Z,81.96
2022-10-22T08:13:31.151Z,81.67
2022-10-22T08:15:33.850Z,81.92
2022-10-22T08:17:36.439Z,82.40
2022-10-22T08:19:39.009Z,82.65
2022-10-22T08:21:42.964Z,82.76
2022-10-22T08:23:45.592Z,82.76
2022-10-22T08:25:48.154Z,82.97
2022-10-22T08:27:50.768Z,83.34
2022-10-22T08:29:53.340Z,83.57
2022-10-22T08:31:56.015Z,83.29
2022-10-22T08:33:58.633Z,83.13
2022-10-22T08:36:01.249Z,83.23
2022-10-22T08:38:05.189Z,83.57
2022-10-22T08:40:08.612Z,83.34
2022-10-22T08:42:31.993Z,83.49
2022-10-22T08:44:59.295Z,83.93
2022-10-22T08:47:21.407Z,83.46
2022-10-22T08:49:29.921Z,83.41
2022-10-22T08:51:35.331Z,83.50
2022-10-22T08:53:45.490Z,81.68
2022-10-22T08:55:49.818Z,80.21
2022-10-22T08:58:00.570Z,80.17
2022-10-22T09:00:07.761Z,80.23
2022-10-22T09:02:28.268Z,79.96
2022-10-22T09:04:41.567Z,79.95
2022-10-22T09:06:44.371Z,79.57
2022-10-22T09:08:48.845Z,78.42
2022-10-22T09:10:55.963Z,79.40
2022-10-22T09:12:58.587Z,78.68
2022-10-22T09:15:01.189Z,78.61
2022-10-22T09:17:14.432Z,78.76
2022-10-22T09:19:26.123Z,79.51
2022-10-22T09:21:35.532Z,78.23
2022-10-22T09:23:50.025Z,78.36
2022-10-22T09:25:55.410Z,79.00
2022-10-22T09:27:59.181Z,79.34
2022-10-22T09:30:02.507Z,79.44
2022-10-22T09:32:05.476Z,79.76
2022-10-22T09:34:08.072Z,80.23
2022-10-22T09:36:14.939Z,80.35
2022-10-22T09:38:21.074Z,80.54
2022-10-22T09:40:24.248Z,80.24
2022-10-22T09:42:28.257Z,79.83
2022-10-22T09:44:34.397Z,80.21
2022-10-22T09:46:43.960Z,79.55
2022-10-22T09:48:50.859Z,80.03
2022-10-22T09:51:00.313Z,80.45
2022-10-22T09:53:12.723Z,80.99
2022-10-22T09:55:17.876Z,81.07
2022-10-22T09:57:23.538Z,81.38
2022-10-22T09:59:30.549Z,81.42
2022-10-22T10:01:35.187Z,79.86
2022-10-22T10:03:37.762Z,80.30
2022-10-22T10:05:44.064Z,79.04
2022-10-22T10:07:47.392Z,79.76
2022-10-22T10:09:51.442Z,78.64
2022-10-22T10:12:00.887Z,76.61
2022-10-22T10:14:12.078Z,76.53
2022-10-22T10:16:35.433Z,76.44
2022-10-22T10:18:54.511Z,75.59
2022-10-22T10:21:05.517Z,76.10
2022-10-22T10:23:21.754Z,76.42
2022-10-22T10:25:42.898Z,75.39
2022-10-22T10:27:54.641Z,74.71
2022-10-22T10:30:01.239Z,74.77
2022-10-22T10:32:24.737Z,75.22
2022-10-22T10:34:40.788Z,75.36
2022-10-22T10:36:50.059Z,75.58
2022-10-22T10:38:59.247Z,75.57
2022-10-22T10:41:14.011Z,75.42
2022-10-22T10:43:22.476Z,74.37
2022-10-22T10:45:33.492Z,74.72
2022-10-22T10:47:55.790Z,73.60
2022-10-22T10:50:15.061Z,74.37
2022-10-22T10:52:27.496Z,73.48
2022-10-22T10:54:44.777Z,70.63
2022-10-22T10:56:52.822Z,70.02
2022-10-22T10:59:02.957Z,68.93
2022-10-22T11:01:17.048Z,69.59
2022-10-22T11:03:55.986Z,69.84
2022-10-22T11:06:03.021Z,70.81
2022-10-22T11:08:11.880Z,71.77
2022-10-22T11:10:25.259Z,72.47
2022-10-22T11:12:32.747Z,71.61
2022-10-22T11:14:47.128Z,70.50
2022-10-22T11:16:56.393Z,68.51
2022-10-22T11:19:04.366Z,70.06
2022-10-22T11:21:17.554Z,69.45
2022-10-22T11:23:29.177Z,68.86
2022-10-22T11:25:35.629Z,69.55
2022-10-22T11:27:43.185Z,70.04
2022-10-22T11:29:53.258Z,68.92
2022-10-22T11:31:57.069Z,69.86
2022-10-22T11:34:32.164Z,70.60
2022-10-22T11:36:33.369Z,70.49
2022-10-22T11:38:36.734Z,70.47
2022-10-22T11:40:45.012Z,70.21
2022-10-22T11:42:51.281Z,69.44
2022-10-22T11:45:02.569Z,70.16
2022-10-22T11:47:16.601Z,70.01
2022-10-22T11:49:27.975Z,70.39
2022-10-22T11:51:35.320Z,71.11
2022-10-22T11:53:39.753Z,70.54
2022-10-22T11:55:48.292Z,70.56
2022-10-22T11:57:51.013Z,70.72
2022-10-22T11:59:57.331Z,71.28
2022-10-22T12:01:59.901Z,71.68
2022-10-22T12:04:21.966Z,70.51
2022-10-22T12:06:26.053Z,69.08
2022-10-22T12:08:30.536Z,68.78
2022-10-22T12:10:37.341Z,69.26
2022-10-22T12:12:40.918Z,68.08
2022-10-22T12:14:56.070Z,67.42
2022-10-22T12:17:03.788Z,67.07
2022-10-22T12:19:14.677Z,64.36
2022-10-22T12:21:17.712Z,64.02
2022-10-22T12:23:25.924Z,64.64
2022-10-22T12:25:35.778Z,65.55
2022-10-22T12:27:40.469Z,66.17
2022-10-22T12:29:43.476Z,66.91
2022-10-22T12:31:48.078Z,63.12
2022-10-22T12:33:57.492Z,62.82
2022-10-22T12:36:04.047Z,62.81
2022-10-22T12:38:14.250Z,64.04
2022-10-22T12:40:18.518Z,64.76
2022-10-22T12:42:23.782Z,64.36
2022-10-22T12:44:26.448Z,63.59
2022-10-22T12:46:31.480Z,62.87
2022-10-22T12:48:40.117Z,62.83
2022-10-22T12:50:45.692Z,63.84
2022-10-22T12:52:49.260Z,62.77
2022-10-22T12:54:54.755Z,61.60
2022-10-22T12:57:00.392Z,62.55
2022-10-22T12:59:08.731Z,62.77
2022-10-22T13:01:13.087Z,64.12
2022-10-22T13:03:29.395Z,65.15
2022-10-22T13:05:38.821Z,65.61
2022-10-22T13:07:44.001Z,65.14
2022-10-22T13:09:48.661Z,64.81
2022-10-22T13:11:54.410Z,62.99
2022-10-22T13:14:04.249Z,61.66
2022-10-22T13:16:22.757Z,61.53
2022-10-22T13:18:26.965Z,62.07
2022-10-22T13:20:29.567Z,62.41
2022-10-22T13:22:34.638Z,62.95
2022-10-22T13:24:49.854Z,62.90
2022-10-22T13:26:55.315Z,63.19
2022-10-22T13:28:59.274Z,63.63
2022-10-22T13:31:10.714Z,63.34
2022-10-22T13:33:26.138Z,61.43
2022-10-22T13:35:32.020Z,61.54
2022-10-22T13:37:35.565Z,61.32
2022-10-22T13:39:38.194Z,61.00
2022-10-22T13:41:41.520Z,61.38
2022-10-22T13:43:44.174Z,62.77
2022-10-22T13:45:48.878Z,62.95
2022-10-22T13:47:55.734Z,61.45
2022-10-22T13:50:00.961Z,60.88
2022-10-22T13:52:07.525Z,59.74
2022-10-22T13:54:15.980Z,59.72
2022-10-22T13:56:20.172Z,58.88
2022-10-22T13:58:25.153Z,57.29
2022-10-22T14:00:28.024Z,57.49
2022-10-22T14:02:30.965Z,56.29
2022-10-22T14:04:37.177Z,55.96
2022-10-22T14:06:39.790Z,55.81
2022-10-22T14:08:43.549Z,55.40
2022-10-22T14:10:46.557Z,54.91
2022-10-22T14:12:52.547Z,54.64
2022-10-22T14:17:00.092Z,54.55
2022-10-22T14:19:04.249Z,53.60
2022-10-22T14:21:08.691Z,51.95
2022-10-22T14:25:23.846Z,49.57
2022-10-22T14:27:26.431Z,50.22
2022-10-22T14:29:29.039Z,50.55
2022-10-22T14:31:32.144Z,48.83
2022-10-22T14:33:35.168Z,49.57
2022-10-22T14:35:37.768Z,50.41
2022-10-22T14:37:42.016Z,50.02
2022-10-22T14:39:46.633Z,50.09
2022-10-22T14:41:49.279Z,50.27
2022-10-22T14:43:54.920Z,50.84
2022-10-22T14:45:58.693Z,52.14
2022-10-22T14:48:01.932Z,52.53
2022-10-22T14:50:05.194Z,50.63
2022-10-22T14:52:14.189Z,50.97
2022-10-22T14:54:18.961Z,51.73
2022-10-22T14:56:22.232Z,51.83
2022-10-22T14:58:24.890Z,51.57
2022-10-22T15:00:27.682Z,51.38
2022-10-22T15:02:30.312Z,50.96
2022-10-22T15:04:33.151Z,49.74
2022-10-22T15:06:36.287Z,49.55
2022-10-22T15:08:39.433Z,49.96
2022-10-22T15:10:43.825Z,50.19
2022-10-22T15:12:46.671Z,49.51
2022-10-22T15:14:49.541Z,50.72
2022-10-22T15:16:52.120Z,52.53
2022-10-22T15:18:54.776Z,52.68
2022-10-22T15:20:59.261Z,54.74
2022-10-22T15:23:01.909Z,55.67
2022-10-22T15:25:07.363Z,53.86
2022-10-22T15:27:14.279Z,54.13
2022-10-22T15:29:16.850Z,53.84
2022-10-22T15:31:43.839Z,54.67
2022-10-22T15:33:46.430Z,54.95
2022-10-22T15:35:49.006Z,54.55
2022-10-22T15:37:52.473Z,54.99
2022-10-22T15:39:55.137Z,56.51
2022-10-22T15:41:58.585Z,58.14
2022-10-22T15:44:02.584Z,58.57
2022-10-22T15:46:14.223Z,58.91
2022-10-22T15:48:16.826Z,60.41
2022-10-22T15:50:19.405Z,61.20
2022-10-22T15:52:22.383Z,62.21
2022-10-22T15:54:28.145Z,62.29
2022-10-22T15:56:31.752Z,62.54
2022-10-22T15:58:34.571Z,62.35
2022-10-22T16:00:38.532Z,63.02
2022-10-22T16:02:41.152Z,63.17
2022-10-22T16:04:43.749Z,63.89
2022-10-22T16:06:48.664Z,64.32
2022-10-22T16:08:51.252Z,64.96
2022-10-22T16:10:53.977Z,65.21
2022-10-22T16:12:57.557Z,65.37
2022-10-22T16:15:00.118Z,65.97
2022-10-22T16:17:04.040Z,66.02
2022-10-22T16:19:07.260Z,66.75
2022-10-22T16:21:14.608Z,66.91
2022-10-22T16:23:19.049Z,66.99
2022-10-22T16:25:21.801Z,66.74
2022-10-22T16:27:24.364Z,67.17
2022-10-22T16:29:27.063Z,66.60
2022-10-22T16:31:29.761Z,66.62
2022-10-22T16:33:41.384Z,66.06
2022-10-22T16:35:49.464Z,65.73
2022-10-22T16:37:52.084Z,65.49
2022-10-22T16:39:54.714Z,65.95
2022-10-22T16:41:57.343Z,66.01
2022-10-22T16:44:02.392Z,66.07
2022-10-22T16:46:05.895Z,66.06
2022-10-22T16:48:08.465Z,65.96
2022-10-22T16:50:12.571Z,65.43
2022-10-22T16:52:15.121Z,66.14
2022-10-22T16:54:17.736Z,65.93
2022-10-22T16:56:20.480Z,66.29
2022-10-22T16:58:24.492Z,66.31
2022-10-22T17:00:27.084Z,66.09
2022-10-22T17:02:29.756Z,65.83
2022-10-22T17:04:32.335Z,65.90
2022-10-22T17:06:36.283Z,66.11
2022-10-22T17:08:40.318Z,66.01
2022-10-22T17:10:42.951Z,66.01
2022-10-22T17:12:45.541Z,66.06
2022-10-22T17:14:48.125Z,65.94
2022-10-22T17:16:53.632Z,65.92
2022-10-22T17:18:57.221Z,65.74
2022-10-22T17:20:59.880Z,65.63
2022-10-22T17:23:03.800Z,65.55
2022-10-22T17:25:13.116Z,66.06
2022-10-22T17:27:15.781Z,66.35
2022-10-22T17:29:18.407Z,65.56
2022-10-22T17:31:22.784Z,66.12
2022-10-22T17:33:25.482Z,66.75
2022-10-22T17:37:36.857Z,67.27
2022-10-22T17:39:40.739Z,67.11
2022-10-22T17:41:43.383Z,66.58
2022-10-22T17:45:54.021Z,67.68
2022-10-22T17:47:57.216Z,68.13
2022-10-22T17:49:59.891Z,68.20
2022-10-22T17:52:02.477Z,68.29
2022-10-22T17:54:07.491Z,68.46
2022-10-22T17:56:15.617Z,68.53
2022-10-22T17:58:18.186Z,68.32
2022-10-22T18:00:21.359Z,68.98
2022-10-22T18:02:23.934Z,68.76
2022-10-22T18:04:29.223Z,68.86
2022-10-22T18:06:32.810Z,68.89
2022-10-22T18:08:35.598Z,69.15
2022-10-22T18:10:40.902Z,68.56
2022-10-22T18:12:44.887Z,68.49
2022-10-22T18:14:50.221Z,68.67
2022-10-22T18:16:54.474Z,69.05
2022-10-22T18:18:58.373Z,69.32
2022-10-22T18:21:01.515Z,68.94
2022-10-22T18:23:04.258Z,68.65
2022-10-22T18:25:07.662Z,69.04
2022-10-22T18:27:10.245Z,69.76
2022-10-22T18:29:17.980Z,69.93
2022-10-22T18:31:22.758Z,69.74
2022-10-22T18:33:25.760Z,69.78
2022-10-22T18:35:28.297Z,70.29
2022-10-22T18:37:31.878Z,70.69
2022-10-22T18:39:35.611Z,70.75
2022-10-22T18:41:38.201Z,70.84
2022-10-22T18:43:40.810Z,70.61
2022-10-22T18:45:45.235Z,70.58
2022-10-22T18:47:47.853Z,70.42
2022-10-22T18:49:51.726Z,70.95
2022-10-22T18:51:54.355Z,70.93
2022-10-22T18:54:11.257Z,71.03
2022-10-22T18:56:19.989Z,71.05
2022-10-22T18:58:22.636Z,70.91
2022-10-22T19:00:26.441Z,70.86
2022-10-22T19:02:30.394Z,70.87
2022-10-22T19:04:36.864Z,70.89
2022-10-22T19:06:42.974Z,70.73
2022-10-22T19:08:51.328Z,70.59
2022-10-22T19:10:54.240Z,70.95
2022-10-22T19:12:56.827Z,70.62
2022-10-22T19:14:59.478Z,71.42
2022-10-22T19:17:02.273Z,71.37
2022-10-22T19:19:07.841Z,71.55
2022-10-22T19:21:10.417Z,71.49
2022-10-22T19:23:15.041Z,71.76
2022-10-22T19:25:19.935Z,71.75
2022-10-22T19:27:22.481Z,71.78
2022-10-22T19:29:25.064Z,71.78
2022-10-22T19:31:29.826Z,72.05
2022-10-22T19:33:32.463Z,72.30
2022-10-22T19:35:38.431Z,72.25
2022-10-22T19:37:44.879Z,72.33
2022-10-22T19:39:50.279Z,71.81
2022-10-22T19:41:52.842Z,71.64
2022-10-22T19:43:56.754Z,71.80
2022-10-22T19:45:59.332Z,72.16
2022-10-22T19:48:01.927Z,72.27
2022-10-22T19:50:04.875Z,72.28
2022-10-22T19:52:08.923Z,72.09
2022-10-22T19:54:18.354Z,72.11
2022-10-22T19:56:21.897Z,72.61
2022-10-22T19:58:24.469Z,72.77
2022-10-22T20:00:29.308Z,72.63
2022-10-22T20:02:31.940Z,72.57
2022-10-22T20:04:34.484Z,72.61
2022-10-22T20:06:37.053Z,72.61
2022-10-22T20:08:41.418Z,72.36
2022-10-22T20:10:44.047Z,72.55
2022-10-22T20:12:49.652Z,72.76
2022-10-22T20:14:52.379Z,72.70
2022-10-22T20:16:54.998Z,72.97
2022-10-22T20:19:01.245Z,72.94
2022-10-22T20:21:05.626Z,73.18
2022-10-22T20:23:08.689Z,73.42
2022-10-22T20:25:13.660Z,73.64
2022-10-22T20:27:16.244Z,73.82
2022-10-22T20:29:19.415Z,74.03
2022-10-22T20:31:24.093Z,73.91
2022-10-22T20:33:26.685Z,74.23
2022-10-22T20:35:29.325Z,74.17
2022-10-22T20:37:31.979Z,74.32
2022-10-22T20:39:34.576Z,74.05
2022-10-22T20:41:40.374Z,74.20
2022-10-22T20:43:44.764Z,73.89
2022-10-22T20:45:47.371Z,73.57
2022-10-22T20:47:51.821Z,73.62
2022-10-22T20:50:01.205Z,73.81
2022-10-22T20:52:03.849Z,74.10
2022-10-22T20:54:08.169Z,74.25
2022-10-22T20:56:11.110Z,73.80
2022-10-22T20:58:15.132Z,73.95
2022-10-22T21:00:18.049Z,73.73
2022-10-22T21:02:20.612Z,73.56
2022-10-22T21:04:23.201Z,73.90
2022-10-22T21:06:26.000Z,73.82
2022-10-22T21:08:28.559Z,73.27
2022-10-22T21:10:32.558Z,74.28
2022-10-22T21:12:35.778Z,74.70
2022-10-22T21:14:39.717Z,74.66
2022-10-22T21:16:43.405Z,74.56
2022-10-22T21:18:46.124Z,74.38
2022-10-22T21:20:48.683Z,75.03
2022-10-22T21:22:51.275Z,75.60
2022-10-22T21:24:53.843Z,76.43
2022-10-22T21:26:56.407Z,75.95
2022-10-22T21:28:58.961Z,76.39
2022-10-22T21:31:03.072Z,76.28
2022-10-22T21:33:08.553Z,75.98
2022-10-22T21:35:11.097Z,76.35
2022-10-22T21:37:13.718Z,76.84
2022-10-22T21:39:16.293Z,76.73
2022-10-22T21:41:21.234Z,76.49
2022-10-22T21:43:23.878Z,76.24
2022-10-22T21:45:26.508Z,76.07
2022-10-22T21:47:30.384Z,75.59
2022-10-22T21:49:33.020Z,75.38
2022-10-22T21:51:38.082Z,75.30
2022-10-22T21:53:41.611Z,75.09
2022-10-22T21:55:44.203Z,74.75
2022-10-22T21:57:46.758Z,74.94
2022-10-22T21:59:49.356Z,74.71
2022-10-22T22:01:51.915Z,74.44
2022-10-22T22:03:56.372Z,74.26
2022-10-22T22:05:59.712Z,74.28
2022-10-22T22:08:02.265Z,74.43
2022-10-22T22:10:05.663Z,74.22
2022-10-22T22:12:09.414Z,74.20
2022-10-22T22:14:12.840Z,74.28
2022-10-22T22:16:20.317Z,74.04
2022-10-22T22:18:25.220Z,74.15
2022-10-22T22:20:29.660Z,73.75
2022-10-22T22:22:32.281Z,75.36
2022-10-22T22:24:35.175Z,75.37
2022-10-22T22:26:37.951Z,74.77
2022-10-22T22:28:40.736Z,74.60
2022-10-22T22:30:43.721Z,75.05
2022-10-22T22:32:46.298Z,74.92
2022-10-22T22:34:48.911Z,75.13
2022-10-22T22:36:53.103Z,74.94
2022-10-22T22:38:56.795Z,74.91
2022-10-22T22:40:59.788Z,74.94
2022-10-22T22:43:02.376Z,74.68
2022-10-22T22:45:05.648Z,74.56
2022-10-22T22:47:08.272Z,74.98
2022-10-22T22:49:10.900Z,74.58
2022-10-22T22:51:13.460Z,74.39
2022-10-22T22:53:17.394Z,74.09
2022-10-22T22:55:20.058Z,74.48
2022-10-22T22:57:22.616Z,74.47
2022-10-22T22:59:25.229Z,74.54
2022-10-22T23:01:30.378Z,74.44
2022-10-22T23:03:33.003Z,74.42
2022-10-22T23:05:37.233Z,74.32
2022-10-22T23:07:39.952Z,74.25
2022-10-22T23:09:46.486Z,74.50
2022-10-22T23:11:49.371Z,74.64
2022-10-22T23:13:54.885Z,73.53
2022-10-22T23:15:57.484Z,73.51
2022-10-22T23:18:00.049Z,74.23
2022-10-22T23:20:02.713Z,75.43
2022-10-22T23:22:05.285Z,75.78
2022-10-22T23:24:10.145Z,75.39
2022-10-22T23:26:15.873Z,74.70
2022-10-22T23:28:18.454Z,74.46
2022-10-22T23:30:21.231Z,74.50
2022-10-22T23:32:23.771Z,74.08
2022-10-22T23:34:26.389Z,74.99
2022-10-22T23:36:29.605Z,74.62
2022-10-22T23:38:32.173Z,74.49
2022-10-22T23:40:34.963Z,73.93
2022-10-22T23:44:46.362Z,73.86
2022-10-22T23:46:49.306Z,72.90
2022-10-22T23:48:53.640Z,73.28
2022-10-22T23:50:56.195Z,73.72
2022-10-22T23:52:58.820Z,73.98
2022-10-22T23:55:01.440Z,73.88
2022-10-22T23:57:04.079Z,74.33
2022-10-22T23:59:08.872Z,73.67
